Arthur City, TX

12:29 PM CDT on August 30, 2015 (GMT -0500)
Golden Eagle Farms | | Change Station
CLOSE
Current Station
Personal Weather Station
Location: Hugo, OK
Elevation: 430 ft
Nearby Weather Stations

Elev 430 ft 33.91 °N, 95.58 °W | Updated 8 minutes ago

Clear
Clear
90.5 °F
Feels Like 93 °F
N
8.0
Wind Variable Wind from SSW
Gusts 17.0 mph

Today
High -- | Low -- °F
--% Chance of Precip.
Yesterday
High -- | Low -- °F
Precip. -- in
6:54 AM 7:50 PM
Full, 99% visible
Pressure 30.01 in
Visibility 10.0 miles
Clouds Clear
Heat Index 93 °F
Dew Point 66 °F
Humidity 45%
Rainfall 0.00 in
Snow Depth Not available.
UV 10 out of 12
Pollen 8.70 out of 12
Air Quality Not available.
Flu Activity Not available.
METAR KHHW 301715Z AUTO 20009KT 10SM CLR 33/18 A3001 RMK AO2 T03330175
Pressure 30.01 in
Visibility 10.0 miles
Clouds Clear
Heat Index 93 °F
Dew Point 66 °F
Humidity 45%
Rainfall 0.00 in
Snow Depth Not available.
UV 10 out of 12
Pollen 8.70 out of 12
Air Quality Not available.
Flu Activity Not available.
METAR KHHW 301715Z AUTO 20009KT 10SM CLR 33/18 A3001 RMK AO2 T03330175
Nowcast | as of 10:36 am CDT on August 30, 2015

Light rain showers will continue to across portions of central Texas into the afternoon hours. Rainfall amounts will be light... generally under 1/10 of an inch. Later this afternoon...showers and thunderstorms may develop. The activity will primarily impact areas south of the I-20 corridor. Those engaged in outdoor activities should keep abreast of the weather. Move indoors immediately if lightning is seen or thunder is heard.

×

10-Day Weather Forecast

×

Almanac

Astronomy

Aug. 30, 2015 Rise Set
Actual Time
Civil Twilight
Nautical Twilight
Astronomical Twilight
Moon
Length of Visible Light
Length of Day
Tomorrow will be .
, % of the Moon is Illuminated

Today's Extremes

State Highs State Lows

Community

WunderPhotos

Upload Photos

1,851,014 photos uploaded!

WunderBlogs® & News

Nearby

Air Quality

  Air Quality AQ Index Pollutant
Not available.

Snow Depth

Station Depth Elevation

Earthquake Activity

City Distance Mag. Time & Date
Minimum magnitude displayed is 2.5.

Coastal Water Temperatures

Place Temperature

Stations

Nearby Weather Stations

Station Location Temp. Windchill Dew Point Humidity Wind Precip. Elev Updated Type